Time;durP1;ratioP1;P1;durP2;ratioP2;P2;SDS_P1;SDS_P2;PMS_P1;PMS_P2;Temp;Humidity;BMP_temperature;BMP_pressure;BME280_temperature;BME280_humidity;BME280_pressure;Samples;Min_cycle;Max_cycle;Signal;HPM_P1;HPM_P2
2022/11/20 00:02:22;;;;;;;4.50;3.22;;;;;;;;;;5009556;28;20036;-58
2022/11/20 00:04:47;;;;;;;5.50;3.40;;;;;;;;;;5006145;28;20105;-58
2022/11/20 00:07:13;;;;;;;5.00;3.38;;;;;;;;;;5007695;28;20100;-58
2022/11/20 00:09:38;;;;;;;4.22;3.10;;;;;;;;;;5009519;28;20121;-58
2022/11/20 00:12:04;;;;;;;5.82;2.92;;;;;;;;;;5009071;28;20070;-58
2022/11/20 00:14:29;;;;;;;8.40;3.60;;;;;;;;;;5005735;28;20037;-58
2022/11/20 00:16:54;;;;;;;5.43;3.47;;;;;;;;;;5008606;28;20037;-58
2022/11/20 00:19:20;;;;;;;3.97;3.13;;;;;;;;;;5002020;28;20034;-59
2022/11/20 00:21:45;;;;;;;7.85;3.20;;;;;;;;;;5008036;28;20056;-57
2022/11/20 00:24:11;;;;;;;4.97;3.22;;;;;;;;;;5007069;28;20232;-57
2022/11/20 00:26:36;;;;;;;3.55;2.88;;;;;;;;;;5006331;28;20030;-57
2022/11/20 00:29:02;;;;;;;5.78;3.00;;;;;;;;;;5005722;28;20030;-57
2022/11/20 00:31:28;;;;;;;5.28;3.17;;;;;;;;;;5003216;28;20034;-58
2022/11/20 00:33:54;;;;;;;4.65;3.25;;;;;;;;;;5002474;28;20119;-57
2022/11/20 00:36:22;;;;;;;4.35;2.80;;;;;;;;;;5006527;28;20500;-57
2022/11/20 00:38:55;;;;;;;4.43;2.95;;;;;;;;;;5009073;28;20475;-58
2022/11/20 00:41:21;;;;;;;4.65;2.88;;;;;;;;;;5005206;28;20534;-58
2022/11/20 00:43:47;;;;;;;6.65;3.47;;;;;;;;;;5002544;28;20029;-58
2022/11/20 00:46:14;;;;;;;6.03;3.40;;;;;;;;;;5003340;28;20030;-58
2022/11/20 00:48:40;;;;;;;5.47;3.40;;;;;;;;;;5005937;28;20117;-58
2022/11/20 00:51:06;;;;;;;5.40;3.35;;;;;;;;;;5005325;28;20109;-58
2022/11/20 00:53:31;;;;;;;5.78;3.30;;;;;;;;;;5009055;28;20034;-57
2022/11/20 00:56:00;;;;;;;5.32;3.10;;;;;;;;;;5006420;28;20025;-57
2022/11/20 00:58:30;;;;;;;5.78;3.70;;;;;;;;;;5008440;28;20558;-58
2022/11/20 01:01:03;;;;;;;;;;;;;;;;;;5007369;28;20045;-58
2022/11/20 01:03:34;;;;;;;5.55;3.30;;;;;;;;;;5009759;28;19920;-57
2022/11/20 01:06:09;;;;;;;4.43;3.13;;;;;;;;;;5008654;28;20038;-57
2022/11/20 01:08:35;;;;;;;5.07;3.72;;;;;;;;;;5004925;28;20037;-58
2022/11/20 01:11:10;;;;;;;7.00;3.15;;;;;;;;;;5004147;28;20039;-57
2022/11/20 01:13:36;;;;;;;5.70;3.50;;;;;;;;;;5000320;28;20428;-59
2022/11/20 01:16:06;;;;;;;3.85;3.08;;;;;;;;;;5003695;28;20036;-58
2022/11/20 01:18:32;;;;;;;5.00;3.63;;;;;;;;;;5002757;28;20410;-58
2022/11/20 01:21:03;;;;;;;6.68;3.45;;;;;;;;;;5007342;28;20037;-58
2022/11/20 01:23:36;;;;;;;4.95;3.63;;;;;;;;;;5003443;28;20018;-58
2022/11/20 01:26:07;;;;;;;6.57;3.40;;;;;;;;;;5003064;28;20040;-58
2022/11/20 01:28:33;;;;;;;5.70;3.67;;;;;;;;;;5007320;28;20108;-58
2022/11/20 01:30:59;;;;;;;6.53;3.28;;;;;;;;;;5008031;28;20037;-59
2022/11/20 01:33:25;;;;;;;6.03;4.03;;;;;;;;;;5005154;28;20030;-57
2022/11/20 01:35:51;;;;;;;6.00;3.70;;;;;;;;;;5005288;28;20025;-57
2022/11/20 01:38:16;;;;;;;7.00;4.07;;;;;;;;;;5007108;28;20040;-57
2022/11/20 01:40:42;;;;;;;6.90;4.05;;;;;;;;;;5001271;28;20030;-57
2022/11/20 01:43:20;;;;;;;6.80;4.00;;;;;;;;;;5001262;28;20084;-57
2022/11/20 01:46:15;;;;;;;6.45;3.90;;;;;;;;;;5002372;28;20083;-57
2022/11/20 01:48:59;;;;;;;7.78;3.80;;;;;;;;;;5006067;28;20022;-57
2022/11/20 01:51:47;;;;;;;6.10;3.83;;;;;;;;;;5007237;28;20495;-57
2022/11/20 01:54:18;;;;;;;7.13;4.20;;;;;;;;;;5005791;28;20040;-57
2022/11/20 01:56:48;;;;;;;9.02;4.28;;;;;;;;;;5006381;28;20049;-57
2022/11/20 01:59:17;;;;;;;6.65;3.78;;;;;;;;;;5006775;28;20033;-57
2022/11/20 02:01:42;;;;;;;7.78;4.20;;;;;;;;;;5002822;28;20409;-58
2022/11/20 02:04:09;;;;;;;9.40;4.65;;;;;;;;;;5005508;28;20042;-58
2022/11/20 02:06:56;;;;;;;5.25;3.78;;;;;;;;;;5007176;28;20064;-57
2022/11/20 02:09:22;;;;;;;5.65;3.70;;;;;;;;;;5004080;28;20030;-57
2022/11/20 02:11:47;;;;;;;9.30;4.30;;;;;;;;;;5005848;28;20037;-58
2022/11/20 02:14:14;;;;;;;6.70;4.43;;;;;;;;;;5000491;28;20041;-57
2022/11/20 02:16:45;;;;;;;7.53;4.25;;;;;;;;;;5001371;28;20037;-57
2022/11/20 02:19:23;;;;;;;6.45;3.92;;;;;;;;;;5003601;28;20033;-56
2022/11/20 02:22:24;;;;;;;7.07;3.92;;;;;;;;;;5001156;28;20052;-57
2022/11/20 02:24:50;;;;;;;6.75;4.03;;;;;;;;;;4999930;28;20487;-57
2022/11/20 02:27:17;;;;;;;5.88;3.80;;;;;;;;;;5008464;28;20037;-59
2022/11/20 02:30:01;;;;;;;6.82;3.90;;;;;;;;;;5005197;28;20105;-58
2022/11/20 02:32:30;;;;;;;5.10;3.42;;;;;;;;;;5006760;28;20037;-58
2022/11/20 02:34:56;;;;;;;4.68;3.28;;;;;;;;;;5004493;28;20034;-58
2022/11/20 02:37:23;;;;;;;5.07;3.40;;;;;;;;;;5004060;28;20034;-58
2022/11/20 02:39:50;;;;;;;6.10;3.40;;;;;;;;;;5007941;28;20021;-57
2022/11/20 02:42:17;;;;;;;4.78;3.30;;;;;;;;;;5007624;28;20491;-58
2022/11/20 02:44:42;;;;;;;6.78;3.45;;;;;;;;;;5006656;28;20400;-58
2022/11/20 02:47:08;;;;;;;5.65;3.65;;;;;;;;;;5005461;28;20040;-58
2022/11/20 02:49:33;;;;;;;8.02;3.15;;;;;;;;;;5003210;28;20026;-59
2022/11/20 02:51:59;;;;;;;3.83;3.00;;;;;;;;;;5004151;28;20038;-58
2022/11/20 02:54:25;;;;;;;6.85;3.50;;;;;;;;;;5007486;28;20026;-59
2022/11/20 02:56:50;;;;;;;6.90;3.47;;;;;;;;;;5005748;28;20558;-59
2022/11/20 02:59:16;;;;;;;4.05;3.25;;;;;;;;;;5005347;28;20037;-59
2022/11/20 03:01:41;;;;;;;4.18;3.10;;;;;;;;;;5004149;28;20038;-58
2022/11/20 03:04:06;;;;;;;5.05;3.40;;;;;;;;;;5005391;28;20105;-58
2022/11/20 03:06:32;;;;;;;5.53;2.95;;;;;;;;;;5003863;28;20073;-58
2022/11/20 03:08:57;;;;;;;4.28;2.95;;;;;;;;;;5006211;28;20487;-58
2022/11/20 03:11:23;;;;;;;6.93;3.05;;;;;;;;;;5005445;28;20037;-58
2022/11/20 03:13:48;;;;;;;4.50;3.00;;;;;;;;;;5005042;28;20021;-57
2022/11/20 03:16:19;;;;;;;4.50;2.92;;;;;;;;;;5002596;28;20025;-58
2022/11/20 03:18:45;;;;;;;4.20;2.83;;;;;;;;;;5003047;28;20028;-58
2022/11/20 03:21:12;;;;;;;5.68;3.30;;;;;;;;;;5001590;28;20029;-58
2022/11/20 03:23:39;;;;;;;6.50;3.33;;;;;;;;;;5001681;28;20469;-58
2022/11/20 03:26:12;;;;;;;7.20;4.00;;;;;;;;;;5006418;28;20583;-58
2022/11/20 03:28:37;;;;;;;4.97;2.80;;;;;;;;;;5001537;28;20117;-57
2022/11/20 03:31:12;;;;;;;3.85;2.85;;;;;;;;;;5003753;28;20117;-58
2022/11/20 03:33:39;;;;;;;3.35;2.75;;;;;;;;;;5000335;28;20542;-58
2022/11/20 03:36:07;;;;;;;5.55;3.00;;;;;;;;;;5006841;28;20038;-58
2022/11/20 03:38:33;;;;;;;5.38;2.88;;;;;;;;;;5004912;28;20026;-58
2022/11/20 03:41:03;;;;;;;4.35;2.92;;;;;;;;;;5004623;28;20040;-57
2022/11/20 03:43:29;;;;;;;4.10;3.20;;;;;;;;;;5007088;28;20380;-58
2022/11/20 03:45:55;;;;;;;4.15;2.90;;;;;;;;;;5001082;28;20026;-58
2022/11/20 03:48:20;;;;;;;3.80;2.78;;;;;;;;;;5001501;28;20079;-58
2022/11/20 03:50:47;;;;;;;4.82;3.10;;;;;;;;;;5003398;28;20030;-58
2022/11/20 03:53:16;;;;;;;4.72;3.15;;;;;;;;;;5008692;28;20018;-58
2022/11/20 03:55:41;;;;;;;5.55;2.83;;;;;;;;;;5005931;28;20124;-57
2022/11/20 03:58:07;;;;;;;4.53;3.10;;;;;;;;;;5006540;28;20125;-58
2022/11/20 04:00:32;;;;;;;3.50;3.17;;;;;;;;;;5004904;28;20034;-58
2022/11/20 04:02:59;;;;;;;4.35;2.80;;;;;;;;;;5009197;28;20238;-58
2022/11/20 04:05:24;;;;;;;4.82;3.03;;;;;;;;;;5005491;28;20030;-58
2022/11/20 04:07:49;;;;;;;4.18;3.00;;;;;;;;;;5004244;28;20511;-56
2022/11/20 04:10:15;;;;;;;3.78;2.92;;;;;;;;;;5006888;28;20103;-56
2022/11/20 04:12:40;;;;;;;4.28;3.00;;;;;;;;;;5004841;28;20098;-57
2022/11/20 04:15:06;;;;;;;5.28;3.20;;;;;;;;;;5002856;28;20026;-57
2022/11/20 04:17:31;;;;;;;3.70;3.10;;;;;;;;;;5001581;28;20088;-59
2022/11/20 04:19:57;;;;;;;3.90;2.60;;;;;;;;;;5004811;28;20049;-58
2022/11/20 04:22:22;;;;;;;9.00;3.47;;;;;;;;;;5001246;28;20117;-57
2022/11/20 04:24:47;;;;;;;6.22;3.10;;;;;;;;;;5002006;28;20395;-58
2022/11/20 04:27:13;;;;;;;4.93;3.30;;;;;;;;;;5008000;28;20040;-58
2022/11/20 04:29:38;;;;;;;4.90;3.13;;;;;;;;;;5012339;28;20046;-58
2022/11/20 04:32:04;;;;;;;4.68;2.65;;;;;;;;;;5007678;28;20055;-58
2022/11/20 04:34:29;;;;;;;4.55;2.75;;;;;;;;;;5008165;28;20038;-58
2022/11/20 04:36:54;;;;;;;4.38;2.78;;;;;;;;;;5010682;28;20022;-58
2022/11/20 04:39:20;;;;;;;5.93;3.03;;;;;;;;;;5008403;28;20022;-59
2022/11/20 04:41:45;;;;;;;4.07;2.95;;;;;;;;;;5005891;28;20045;-58
2022/11/20 04:44:11;;;;;;;5.43;2.80;;;;;;;;;;5007392;28;20025;-57
2022/11/20 04:46:39;;;;;;;4.38;2.80;;;;;;;;;;5009263;28;20026;-58
2022/11/20 04:49:05;;;;;;;3.05;2.75;;;;;;;;;;5006947;28;20026;-58
2022/11/20 04:51:32;;;;;;;4.57;3.28;;;;;;;;;;5008074;28;20041;-58
2022/11/20 04:53:57;;;;;;;4.55;3.05;;;;;;;;;;5011910;28;20055;-58
2022/11/20 04:56:22;;;;;;;4.40;2.85;;;;;;;;;;5010235;28;20033;-58
2022/11/20 04:58:48;;;;;;;4.55;3.08;;;;;;;;;;5008790;28;20029;-58
2022/11/20 05:01:19;;;;;;;3.97;2.60;;;;;;;;;;5008523;28;20026;-59
2022/11/20 05:03:45;;;;;;;6.00;3.13;;;;;;;;;;5005081;28;20476;-58
2022/11/20 05:06:13;;;;;;;6.55;3.00;;;;;;;;;;5005977;28;20044;-58
2022/11/20 05:08:39;;;;;;;4.35;2.53;;;;;;;;;;5005677;28;20026;-58
2022/11/20 05:11:08;;;;;;;3.33;2.60;;;;;;;;;;5007549;28;20041;-58
2022/11/20 05:13:34;;;;;;;3.88;3.00;;;;;;;;;;5005632;28;20036;-57
2022/11/20 05:16:20;;;;;;;3.28;2.45;;;;;;;;;;5004752;28;20142;-58
2022/11/20 05:18:46;;;;;;;4.70;2.25;;;;;;;;;;5005651;28;20026;-57
2022/11/20 05:21:13;;;;;;;2.95;2.28;;;;;;;;;;5006578;28;20056;-58
2022/11/20 05:23:38;;;;;;;3.05;2.60;;;;;;;;;;5008105;28;20022;-57
2022/11/20 05:26:06;;;;;;;3.17;2.70;;;;;;;;;;5006916;28;20036;-58
2022/11/20 05:28:32;;;;;;;2.92;2.50;;;;;;;;;;5008024;28;20051;-58
2022/11/20 05:31:08;;;;;;;2.78;2.40;;;;;;;;;;5008099;28;20029;-58
2022/11/20 05:33:35;;;;;;;4.20;2.40;;;;;;;;;;5031198;28;20138;-58
2022/11/20 05:36:01;;;;;;;5.30;2.80;;;;;;;;;;5009739;28;20057;-57
2022/11/20 05:38:26;;;;;;;3.90;2.50;;;;;;;;;;5005816;28;20391;-58
2022/11/20 05:40:51;;;;;;;3.72;2.53;;;;;;;;;;5004408;28;20021;-58
2022/11/20 05:43:17;;;;;;;4.30;2.53;;;;;;;;;;5003126;28;20038;-58
2022/11/20 05:45:42;;;;;;;5.70;2.63;;;;;;;;;;5006834;28;20450;-59
2022/11/20 05:48:07;;;;;;;4.30;2.70;;;;;;;;;;5006998;28;20028;-58
2022/11/20 05:50:33;;;;;;;3.17;2.47;;;;;;;;;;5008765;28;20030;-59
2022/11/20 05:52:59;;;;;;;4.18;2.60;;;;;;;;;;5006050;28;20408;-59
2022/11/20 05:55:25;;;;;;;2.95;2.33;;;;;;;;;;5005635;28;20038;-59
2022/11/20 05:57:53;;;;;;;3.03;2.70;;;;;;;;;;5005786;28;20022;-58
2022/11/20 06:00:18;;;;;;;3.53;2.60;;;;;;;;;;5005092;28;20018;-58
2022/11/20 06:02:44;;;;;;;3.08;2.45;;;;;;;;;;5007882;28;20036;-58
2022/11/20 06:05:09;;;;;;;3.70;2.30;;;;;;;;;;5005774;28;20055;-58
2022/11/20 06:07:35;;;;;;;3.10;2.38;;;;;;;;;;5006015;28;20164;-58
2022/11/20 06:10:00;;;;;;;3.75;2.35;;;;;;;;;;5005847;28;20042;-58
2022/11/20 06:12:25;;;;;;;4.85;2.45;;;;;;;;;;5004459;28;20030;-57
2022/11/20 06:14:51;;;;;;;4.07;2.30;;;;;;;;;;5006387;28;20029;-58
2022/11/20 06:17:16;;;;;;;3.50;2.30;;;;;;;;;;5007105;28;20021;-58
2022/11/20 06:19:41;;;;;;;2.92;2.20;;;;;;;;;;5005254;28;20108;-58
2022/11/20 06:22:07;;;;;;;11.45;2.72;;;;;;;;;;5007670;28;20038;-58
2022/11/20 06:24:32;;;;;;;3.97;2.60;;;;;;;;;;5006458;28;20059;-58
2022/11/20 06:26:57;;;;;;;3.22;2.63;;;;;;;;;;5007206;28;20165;-58
2022/11/20 06:29:23;;;;;;;5.03;2.60;;;;;;;;;;5004895;28;20030;-58
2022/11/20 06:31:48;;;;;;;4.35;3.00;;;;;;;;;;5002024;28;20037;-57
2022/11/20 06:34:14;;;;;;;3.65;3.03;;;;;;;;;;5002075;28;20076;-58
2022/11/20 06:36:39;;;;;;;4.50;2.72;;;;;;;;;;5006842;28;20054;-58
2022/11/20 06:39:04;;;;;;;4.30;2.50;;;;;;;;;;5003055;28;20067;-58
2022/11/20 06:41:30;;;;;;;4.45;2.45;;;;;;;;;;5004240;28;20574;-58
2022/11/20 06:43:55;;;;;;;4.35;2.47;;;;;;;;;;5005108;28;20038;-58
2022/11/20 06:46:20;;;;;;;4.95;2.78;;;;;;;;;;5006178;28;20033;-57
2022/11/20 06:48:47;;;;;;;3.33;2.50;;;;;;;;;;5006861;28;20029;-57
2022/11/20 06:51:13;;;;;;;7.15;3.30;;;;;;;;;;5005903;28;20038;-58
2022/11/20 06:53:39;;;;;;;4.13;3.10;;;;;;;;;;5003884;28;20177;-58
2022/11/20 06:56:05;;;;;;;4.47;2.63;;;;;;;;;;5005564;28;20116;-59
2022/11/20 06:58:33;;;;;;;2.65;2.28;;;;;;;;;;5006092;28;20120;-58
2022/11/20 07:01:00;;;;;;;8.77;4.75;;;;;;;;;;5005286;28;20030;-59
2022/11/20 07:03:25;;;;;;;8.50;4.40;;;;;;;;;;5004001;28;20045;-58
2022/11/20 07:05:51;;;;;;;6.10;3.38;;;;;;;;;;5018652;28;20030;-58
2022/11/20 07:08:16;;;;;;;4.50;3.08;;;;;;;;;;5000368;28;20045;-58
2022/11/20 07:10:42;;;;;;;7.10;3.10;;;;;;;;;;5000537;28;20030;-57
2022/11/20 07:13:07;;;;;;;5.15;2.85;;;;;;;;;;5008098;28;20030;-58
2022/11/20 07:15:33;;;;;;;2.92;2.40;;;;;;;;;;5002266;28;22052;-57
2022/11/20 07:17:59;;;;;;;3.00;2.30;;;;;;;;;;5004396;28;20026;-58
2022/11/20 07:20:25;;;;;;;4.72;2.53;;;;;;;;;;5002993;28;20348;-58
2022/11/20 07:22:57;;;;;;;4.88;2.60;;;;;;;;;;5004700;28;20116;-58
2022/11/20 07:25:24;;;;;;;3.05;2.20;;;;;;;;;;4996519;28;20018;-58
2022/11/20 07:27:49;;;;;;;3.70;2.75;;;;;;;;;;4999570;28;20048;-58
2022/11/20 07:30:16;;;;;;;2.95;2.25;;;;;;;;;;5005031;28;20496;-59
2022/11/20 07:32:41;;;;;;;3.15;2.10;;;;;;;;;;5005702;28;20034;-58
2022/11/20 07:35:07;;;;;;;4.22;2.28;;;;;;;;;;5003289;28;20025;-58
2022/11/20 07:37:38;;;;;;;2.42;2.00;;;;;;;;;;5010370;28;20076;-63
2022/11/20 07:40:04;;;;;;;3.33;2.13;;;;;;;;;;5010053;28;20108;-56
2022/11/20 07:42:29;;;;;;;3.10;2.30;;;;;;;;;;5008813;28;20690;-57
2022/11/20 07:44:55;;;;;;;4.90;2.08;;;;;;;;;;5006571;28;20084;-57
2022/11/20 07:47:20;;;;;;;2.85;2.05;;;;;;;;;;5012218;28;20072;-58
2022/11/20 07:49:46;;;;;;;3.30;2.03;;;;;;;;;;5009936;28;20411;-58
2022/11/20 07:52:11;;;;;;;3.97;2.42;;;;;;;;;;5008584;28;20037;-57
2022/11/20 07:54:37;;;;;;;2.65;2.00;;;;;;;;;;5009704;28;20372;-57
2022/11/20 07:57:02;;;;;;;2.35;1.70;;;;;;;;;;5013546;28;20113;-59
2022/11/20 07:59:28;;;;;;;2.33;2.10;;;;;;;;;;5006678;28;20495;-59
2022/11/20 08:01:53;;;;;;;2.85;1.95;;;;;;;;;;5007204;28;20025;-59
2022/11/20 08:04:18;;;;;;;3.00;2.13;;;;;;;;;;5010026;28;20523;-59
2022/11/20 08:06:45;;;;;;;3.33;2.20;;;;;;;;;;5006190;28;20101;-59
2022/11/20 08:09:10;;;;;;;4.30;2.65;;;;;;;;;;5005358;28;20184;-59
2022/11/20 08:14:20;;;;;;;5.78;2.95;;;;;;;;;;5005549;28;20052;-58
2022/11/20 08:16:47;;;;;;;3.03;2.20;;;;;;;;;;5002360;28;20475;-56
2022/11/20 08:19:14;;;;;;;3.20;2.10;;;;;;;;;;5004712;28;20121;-57
2022/11/20 08:21:40;;;;;;;5.35;3.33;;;;;;;;;;5003316;28;20422;-56
2022/11/20 08:24:06;;;;;;;7.28;3.15;;;;;;;;;;5000298;28;20076;-58
2022/11/20 08:26:32;;;;;;;3.22;1.80;;;;;;;;;;5008317;28;20025;-58
2022/11/20 08:28:58;;;;;;;5.38;2.53;;;;;;;;;;5010050;28;20030;-59
2022/11/20 08:31:25;;;;;;;2.10;1.85;;;;;;;;;;5004091;28;20158;-59
2022/11/20 08:33:51;;;;;;;2.33;1.90;;;;;;;;;;5006703;28;20079;-57
2022/11/20 08:36:17;;;;;;;1.80;1.52;;;;;;;;;;5006367;28;20117;-57
2022/11/20 08:38:48;;;;;;;3.63;2.50;;;;;;;;;;5009399;28;20029;-58
2022/11/20 08:41:26;;;;;;;3.17;1.95;;;;;;;;;;5005876;28;20518;-58
2022/11/20 08:44:03;;;;;;;2.25;1.80;;;;;;;;;;5009602;28;20030;-57
2022/11/20 08:46:33;;;;;;;2.03;1.83;;;;;;;;;;5009202;28;20109;-58
2022/11/20 08:48:59;;;;;;;2.75;2.30;;;;;;;;;;5005508;28;20113;-58
2022/11/20 08:51:24;;;;;;;2.72;2.00;;;;;;;;;;5008345;28;20108;-57
2022/11/20 08:53:50;;;;;;;2.03;1.70;;;;;;;;;;5011090;28;20041;-57
2022/11/20 08:56:16;;;;;;;2.03;1.55;;;;;;;;;;5010015;28;20479;-58
2022/11/20 08:58:42;;;;;;;3.72;2.60;;;;;;;;;;5004630;28;20031;-58
2022/11/20 09:01:07;;;;;;;3.65;1.80;;;;;;;;;;5005392;28;20431;-59
2022/11/20 09:03:32;;;;;;;2.90;2.20;;;;;;;;;;5004084;28;20026;-58
2022/11/20 09:06:03;;;;;;;2.35;1.70;;;;;;;;;;5003906;28;20030;-58
2022/11/20 09:08:30;;;;;;;2.70;1.52;;;;;;;;;;5009754;28;20479;-58
2022/11/20 09:10:57;;;;;;;2.83;1.50;;;;;;;;;;5008577;28;20021;-58
2022/11/20 09:13:23;;;;;;;2.00;1.60;;;;;;;;;;5004142;28;20491;-58
2022/11/20 09:15:56;;;;;;;2.78;1.77;;;;;;;;;;5005254;28;20034;-57
2022/11/20 09:18:22;;;;;;;1.95;1.73;;;;;;;;;;5009681;28;20030;-58
2022/11/20 09:20:47;;;;;;;2.67;2.00;;;;;;;;;;5004663;28;20035;-58
2022/11/20 09:23:13;;;;;;;2.63;2.10;;;;;;;;;;5004970;28;20040;-59
2022/11/20 09:25:38;;;;;;;2.65;1.60;;;;;;;;;;5003623;28;20022;-58
2022/11/20 09:28:03;;;;;;;2.83;2.30;;;;;;;;;;5002013;28;20026;-57
2022/11/20 09:30:30;;;;;;;3.08;2.40;;;;;;;;;;5002972;28;20134;-57
2022/11/20 09:32:56;;;;;;;3.15;1.80;;;;;;;;;;5002958;28;20036;-57
2022/11/20 09:35:21;;;;;;;3.20;1.45;;;;;;;;;;5004773;28;20418;-58
2022/11/20 09:37:47;;;;;;;2.88;2.13;;;;;;;;;;5006000;28;20087;-57
2022/11/20 09:40:28;;;;;;;1.77;1.58;;;;;;;;;;5005948;28;20033;-58
2022/11/20 09:43:11;;;;;;;4.65;2.33;;;;;;;;;;5002679;28;20026;-58
2022/11/20 09:45:37;;;;;;;2.60;1.80;;;;;;;;;;5004855;28;20141;-57
2022/11/20 09:48:36;;;;;;;6.10;2.92;;;;;;;;;;5007414;28;20113;-57
2022/11/20 09:51:27;;;;;;;2.33;1.98;;;;;;;;;;5007060;28;20033;-57
2022/11/20 09:54:15;;;;;;;3.55;1.90;;;;;;;;;;5005966;28;20032;-58
2022/11/20 09:56:46;;;;;;;2.83;1.92;;;;;;;;;;5005303;28;20113;-59
2022/11/20 09:59:39;;;;;;;4.15;2.42;;;;;;;;;;5005063;28;20029;-58
2022/11/20 10:02:17;;;;;;;3.03;1.83;;;;;;;;;;5004974;28;20034;-58
2022/11/20 10:05:12;;;;;;;1.50;1.40;;;;;;;;;;5001558;28;20079;-58
2022/11/20 10:08:25;;;;;;;3.97;2.05;;;;;;;;;;4999313;28;20053;-58
2022/11/20 10:10:58;;;;;;;4.00;2.00;;;;;;;;;;5007316;28;20166;-58
2022/11/20 10:13:29;;;;;;;3.88;2.30;;;;;;;;;;5004808;28;20073;-58
2022/11/20 10:16:32;;;;;;;3.40;1.83;;;;;;;;;;5001110;28;20067;-57
2022/11/20 10:19:16;;;;;;;3.38;2.20;;;;;;;;;;5001655;28;20046;-57
2022/11/20 10:21:47;;;;;;;2.83;2.10;;;;;;;;;;5000760;28;20041;-57
2022/11/20 10:24:49;;;;;;;1.70;1.50;;;;;;;;;;5007984;28;20022;-56
2022/11/20 10:27:33;;;;;;;3.25;2.35;;;;;;;;;;5003490;28;20022;-57
2022/11/20 10:30:13;;;;;;;7.20;3.55;;;;;;;;;;5006632;28;20048;-58
2022/11/20 10:32:47;;;;;;;3.25;2.38;;;;;;;;;;5004145;28;20030;-57
2022/11/20 10:35:18;;;;;;;3.95;2.45;;;;;;;;;;5006085;28;20029;-57
2022/11/20 10:37:47;;;;;;;4.30;2.78;;;;;;;;;;5007890;28;20025;-57
2022/11/20 10:40:31;;;;;;;3.70;2.20;;;;;;;;;;5006242;28;20038;-56
2022/11/20 10:43:01;;;;;;;4.75;3.03;;;;;;;;;;5005782;28;20384;-57
2022/11/20 10:45:33;;;;;;;2.97;2.35;;;;;;;;;;5006535;28;20549;-57
2022/11/20 10:48:12;;;;;;;3.33;2.72;;;;;;;;;;5006238;28;20626;-57
2022/11/20 10:50:49;;;;;;;4.22;2.65;;;;;;;;;;5005450;28;20491;-57
2022/11/20 10:53:17;;;;;;;5.50;3.10;;;;;;;;;;5003925;28;20978;-57
2022/11/20 10:55:56;;;;;;;2.30;2.08;;;;;;;;;;5001450;28;20018;-57
2022/11/20 10:58:47;;;;;;;3.92;2.50;;;;;;;;;;5006622;28;20690;-58
2022/11/20 11:01:23;;;;;;;5.20;2.92;;;;;;;;;;5006537;28;20117;-57
2022/11/20 11:03:51;;;;;;;4.05;2.90;;;;;;;;;;5005157;28;20021;-57
2022/11/20 11:06:35;;;;;;;3.10;2.42;;;;;;;;;;5003676;28;20084;-57
2022/11/20 11:09:09;;;;;;;2.17;1.95;;;;;;;;;;5001043;28;20519;-57
2022/11/20 11:11:34;;;;;;;3.13;2.65;;;;;;;;;;5004691;28;20060;-57
2022/11/20 11:14:05;;;;;;;5.03;2.60;;;;;;;;;;5008183;28;20030;-56
2022/11/20 11:16:31;;;;;;;3.47;2.95;;;;;;;;;;5008909;28;20515;-57
2022/11/20 11:19:26;;;;;;;6.03;2.60;;;;;;;;;;5009735;28;20091;-58
2022/11/20 11:21:56;;;;;;;3.95;2.45;;;;;;;;;;5000038;28;20034;-56
2022/11/20 11:24:24;;;;;;;4.20;2.75;;;;;;;;;;5003279;28;20644;-57
2022/11/20 11:26:59;;;;;;;3.63;2.60;;;;;;;;;;5007593;28;20480;-57
2022/11/20 11:29:27;;;;;;;2.83;2.35;;;;;;;;;;5008806;28;20021;-57
2022/11/20 11:32:07;;;;;;;3.90;2.58;;;;;;;;;;5011934;28;20390;-57
2022/11/20 11:34:33;;;;;;;3.63;2.25;;;;;;;;;;5006022;28;20574;-57
2022/11/20 11:37:01;;;;;;;3.78;2.78;;;;;;;;;;5010238;28;20124;-56
2022/11/20 11:39:29;;;;;;;6.22;2.80;;;;;;;;;;5012657;28;20026;-56
2022/11/20 11:41:55;;;;;;;3.33;2.53;;;;;;;;;;5012761;28;20039;-55
2022/11/20 11:47:31;;;;;;;4.22;2.13;;;;;;;;;;5012673;28;20041;-56
2022/11/20 11:50:27;;;;;;;2.67;2.28;;;;;;;;;;5010800;28;20034;-56
2022/11/20 11:53:16;;;;;;;3.88;2.10;;;;;;;;;;5008487;28;20029;-56
2022/11/20 11:55:56;;;;;;;4.00;2.70;;;;;;;;;;5008015;28;20052;-57
2022/11/20 11:58:44;;;;;;;2.83;2.03;;;;;;;;;;5006494;28;20036;-57
2022/11/20 12:01:20;;;;;;;2.53;1.77;;;;;;;;;;5005714;28;20036;-57
2022/11/20 12:03:58;;;;;;;3.33;2.00;;;;;;;;;;5004319;28;20578;-57
2022/11/20 12:06:28;;;;;;;3.10;2.00;;;;;;;;;;5002871;28;20348;-56
2022/11/20 12:09:04;;;;;;;2.42;1.88;;;;;;;;;;5004662;28;20040;-57
2022/11/20 12:11:55;;;;;;;9.63;3.42;;;;;;;;;;5008714;28;20057;-58
2022/11/20 12:14:26;;;;;;;2.20;1.70;;;;;;;;;;5006647;28;20033;-57
2022/11/20 12:16:55;;;;;;;5.57;2.63;;;;;;;;;;5013860;28;20032;-58
2022/11/20 12:19:21;;;;;;;4.57;2.27;;;;;;;;;;5010759;28;20041;-57
2022/11/20 12:21:52;;;;;;;3.53;2.00;;;;;;;;;;5008534;28;20022;-57
2022/11/20 12:24:40;;;;;;;2.70;1.65;;;;;;;;;;5010225;28;20026;-57
2022/11/20 12:27:27;;;;;;;2.47;2.17;;;;;;;;;;5008774;28;20030;-57
2022/11/20 12:30:09;;;;;;;2.78;1.73;;;;;;;;;;5005414;28;20529;-57
2022/11/20 12:32:53;;;;;;;2.42;1.50;;;;;;;;;;5008048;28;20034;-58
2022/11/20 12:35:56;;;;;;;4.38;2.20;;;;;;;;;;5008687;28;20079;-58
2022/11/20 12:38:36;;;;;;;3.03;1.80;;;;;;;;;;5007426;28;20030;-57
2022/11/20 12:45:09;;;;;;;2.70;1.73;;;;;;;;;;5005524;28;20026;-58
2022/11/20 12:47:27;;;;;;;7.45;3.97;;;;;;;;;;5007517;28;20036;-57
2022/11/20 12:50:13;;;;;;;3.53;2.40;;;;;;;;;;5006164;28;20030;-58
2022/11/20 12:52:56;;;;;;;2.83;2.10;;;;;;;;;;5007039;28;20065;-57
2022/11/20 12:56:01;;;;;;;2.63;1.70;;;;;;;;;;5005199;28;20159;-58
2022/11/20 12:58:43;;;;;;;2.58;1.92;;;;;;;;;;5005348;28;20084;-57
2022/11/20 13:01:39;;;;;;;2.80;1.80;;;;;;;;;;5008511;28;20033;-57
2022/11/20 13:04:25;;;;;;;3.05;1.80;;;;;;;;;;5002005;28;20108;-58
2022/11/20 13:06:51;;;;;;;2.25;1.50;;;;;;;;;;5001093;28;20034;-58
2022/11/20 13:09:23;;;;;;;4.50;1.90;;;;;;;;;;5004558;28;20025;-57
2022/11/20 13:12:03;;;;;;;5.18;2.33;;;;;;;;;;5007692;28;20060;-57
2022/11/20 13:14:53;;;;;;;3.60;2.00;;;;;;;;;;5007179;28;20029;-57
2022/11/20 13:17:35;;;;;;;3.78;2.05;;;;;;;;;;5002562;28;20036;-57
2022/11/20 13:20:04;;;;;;;2.42;2.05;;;;;;;;;;5005237;28;20038;-58
2022/11/20 13:22:44;;;;;;;3.78;2.10;;;;;;;;;;5005348;28;20388;-58
2022/11/20 13:25:21;;;;;;;4.13;2.30;;;;;;;;;;5005982;28;20031;-58
2022/11/20 13:27:48;;;;;;;2.83;2.53;;;;;;;;;;5007448;28;20041;-58
2022/11/20 13:30:17;;;;;;;2.15;1.95;;;;;;;;;;5009226;28;20518;-57
2022/11/20 13:32:56;;;;;;;2.88;2.00;;;;;;;;;;5004448;28;20034;-58
2022/11/20 13:35:34;;;;;;;3.70;2.60;;;;;;;;;;5004577;28;20041;-58
2022/11/20 13:38:11;;;;;;;4.97;2.58;;;;;;;;;;5012145;28;20096;-58
2022/11/20 13:40:50;;;;;;;2.97;2.67;;;;;;;;;;5009786;28;20026;-59
2022/11/20 13:43:18;;;;;;;6.00;2.42;;;;;;;;;;5009059;28;20034;-58
2022/11/20 13:45:55;;;;;;;5.80;4.00;;;;;;;;;;5006596;28;20033;-57
2022/11/20 13:48:23;;;;;;;5.45;3.13;;;;;;;;;;5006523;28;20033;-56
2022/11/20 13:51:00;;;;;;;3.50;3.10;;;;;;;;;;5006210;28;20033;-56
2022/11/20 13:53:52;;;;;;;6.20;3.17;;;;;;;;;;5003670;28;20022;-58
2022/11/20 13:56:25;;;;;;;5.57;3.40;;;;;;;;;;5003252;28;20033;-57
2022/11/20 13:59:12;;;;;;;5.10;3.17;;;;;;;;;;5005901;28;20037;-58
2022/11/20 14:01:47;;;;;;;6.10;3.53;;;;;;;;;;5000348;28;20062;-58
2022/11/20 14:04:20;;;;;;;4.75;3.00;;;;;;;;;;4999984;28;20022;-56
2022/11/20 14:06:49;;;;;;;5.70;2.92;;;;;;;;;;5008492;28;20033;-58
2022/11/20 14:09:30;;;;;;;4.07;2.75;;;;;;;;;;5029340;28;20081;-58
2022/11/20 14:11:55;;;;;;;3.83;2.75;;;;;;;;;;5003530;28;20073;-57
2022/11/20 14:14:27;;;;;;;4.72;2.13;;;;;;;;;;5003269;28;20046;-59
2022/11/20 14:17:06;;;;;;;7.75;3.85;;;;;;;;;;5004307;28;20026;-58
2022/11/20 14:19:33;;;;;;;8.27;4.18;;;;;;;;;;5003664;28;20030;-57
2022/11/20 14:22:10;;;;;;;6.53;2.85;;;;;;;;;;5005204;28;20038;-58
2022/11/20 14:24:36;;;;;;;2.65;1.73;;;;;;;;;;5007586;28;20053;-58
2022/11/20 14:27:02;;;;;;;5.05;2.45;;;;;;;;;;5008801;28;20049;-58
2022/11/20 14:29:38;;;;;;;3.85;2.10;;;;;;;;;;5006449;28;20029;-58
2022/11/20 14:32:05;;;;;;;2.35;1.98;;;;;;;;;;5006008;28;20038;-56
2022/11/20 14:34:37;;;;;;;7.65;2.10;;;;;;;;;;5005207;28;20515;-58
2022/11/20 14:37:06;;;;;;;6.18;3.10;;;;;;;;;;5005110;28;20038;-58
2022/11/20 14:39:34;;;;;;;13.52;6.10;;;;;;;;;;5006606;28;20523;-58
2022/11/20 14:42:01;;;;;;;12.85;6.07;;;;;;;;;;5007672;28;20696;-58
2022/11/20 14:44:37;;;;;;;19.27;9.77;;;;;;;;;;5005329;28;20029;-59
2022/11/20 14:47:04;;;;;;;14.15;6.15;;;;;;;;;;5004897;28;20777;-58
2022/11/20 14:49:31;;;;;;;12.77;7.43;;;;;;;;;;5005849;28;20486;-58
2022/11/20 14:52:03;;;;;;;8.98;4.63;;;;;;;;;;5006753;28;20029;-58
2022/11/20 14:54:30;;;;;;;26.73;13.90;;;;;;;;;;5003667;28;20033;-58
2022/11/20 14:57:03;;;;;;;24.20;12.23;;;;;;;;;;5021450;28;20324;-58
2022/11/20 14:59:31;;;;;;;22.90;10.55;;;;;;;;;;5022707;28;20036;-57
2022/11/20 15:02:05;;;;;;;19.40;7.82;;;;;;;;;;5027440;28;20037;-58
2022/11/20 15:04:31;;;;;;;14.30;5.38;;;;;;;;;;5021595;28;20603;-56
2022/11/20 15:06:58;;;;;;;15.88;6.03;;;;;;;;;;5025937;28;20392;-58
2022/11/20 15:09:24;;;;;;;10.23;5.00;;;;;;;;;;5021934;28;20106;-58
2022/11/20 15:11:58;;;;;;;6.68;4.40;;;;;;;;;;5013164;28;20512;-57
2022/11/20 15:14:25;;;;;;;16.25;7.72;;;;;;;;;;5021493;28;20029;-58